sensor_id;sensor_type;location;lat;lon;timestamp;temperature;humidity
19085;DHT22;9675;51.538;6.728;2024-02-21T00:01:32;10.00;99.90
19085;DHT22;9675;51.538;6.728;2024-02-21T00:03:59;10.00;99.90
19085;DHT22;9675;51.538;6.728;2024-02-21T00:06:26;10.00;99.90
19085;DHT22;9675;51.538;6.728;2024-02-21T00:08:53;10.00;99.90
19085;DHT22;9675;51.538;6.728;2024-02-21T00:11:21;9.90;99.90
19085;DHT22;9675;51.538;6.728;2024-02-21T00:13:48;10.00;99.90
19085;DHT22;9675;51.538;6.728;2024-02-21T00:16:16;9.90;99.90
19085;DHT22;9675;51.538;6.728;2024-02-21T00:18:43;10.00;99.90
19085;DHT22;9675;51.538;6.728;2024-02-21T00:21:10;10.00;99.90
19085;DHT22;9675;51.538;6.728;2024-02-21T00:23:43;10.00;99.90
19085;DHT22;9675;51.538;6.728;2024-02-21T00:26:11;10.00;99.90
19085;DHT22;9675;51.538;6.728;2024-02-21T00:28:39;10.00;99.90
19085;DHT22;9675;51.538;6.728;2024-02-21T00:31:06;9.90;99.90
19085;DHT22;9675;51.538;6.728;2024-02-21T00:33:33;10.00;99.90
19085;DHT22;9675;51.538;6.728;2024-02-21T00:36:00;10.00;99.90
19085;DHT22;9675;51.538;6.728;2024-02-21T00:38:27;9.90;99.90
19085;DHT22;9675;51.538;6.728;2024-02-21T00:40:54;10.00;99.90
19085;DHT22;9675;51.538;6.728;2024-02-21T00:43:22;10.00;99.90
19085;DHT22;9675;51.538;6.728;2024-02-21T00:45:51;10.00;99.90
19085;DHT22;9675;51.538;6.728;2024-02-21T00:48:18;10.00;99.90
19085;DHT22;9675;51.538;6.728;2024-02-21T00:50:45;9.90;99.90
19085;DHT22;9675;51.538;6.728;2024-02-21T00:53:12;9.90;99.90
19085;DHT22;9675;51.538;6.728;2024-02-21T00:55:39;9.90;99.90
19085;DHT22;9675;51.538;6.728;2024-02-21T00:58:06;9.90;99.90
19085;DHT22;9675;51.538;6.728;2024-02-21T01:00:33;10.00;99.90
19085;DHT22;9675;51.538;6.728;2024-02-21T01:03:02;10.00;99.90
19085;DHT22;9675;51.538;6.728;2024-02-21T01:05:29;9.90;99.90
19085;DHT22;9675;51.538;6.728;2024-02-21T01:07:56;10.00;99.90
19085;DHT22;9675;51.538;6.728;2024-02-21T01:10:23;10.00;99.90
19085;DHT22;9675;51.538;6.728;2024-02-21T01:12:50;9.90;99.90
19085;DHT22;9675;51.538;6.728;2024-02-21T01:15:17;10.00;99.90
19085;DHT22;9675;51.538;6.728;2024-02-21T01:17:44;9.90;99.90
19085;DHT22;9675;51.538;6.728;2024-02-21T01:20:13;9.90;99.90
19085;DHT22;9675;51.538;6.728;2024-02-21T01:22:40;9.90;99.90
19085;DHT22;9675;51.538;6.728;2024-02-21T01:25:08;9.90;99.90
19085;DHT22;9675;51.538;6.728;2024-02-21T01:27:35;9.90;99.90
19085;DHT22;9675;51.538;6.728;2024-02-21T01:30:02;9.90;99.90
19085;DHT22;9675;51.538;6.728;2024-02-21T01:32:31;9.90;99.90
19085;DHT22;9675;51.538;6.728;2024-02-21T01:34:58;9.90;99.90
19085;DHT22;9675;51.538;6.728;2024-02-21T01:37:26;9.90;99.90
19085;DHT22;9675;51.538;6.728;2024-02-21T01:39:53;10.00;99.90
19085;DHT22;9675;51.538;6.728;2024-02-21T01:42:20;9.90;99.90
19085;DHT22;9675;51.538;6.728;2024-02-21T01:44:47;9.90;99.90
19085;DHT22;9675;51.538;6.728;2024-02-21T01:47:14;9.90;99.90
19085;DHT22;9675;51.538;6.728;2024-02-21T01:49:42;9.90;99.90
19085;DHT22;9675;51.538;6.728;2024-02-21T01:52:11;9.90;99.90
19085;DHT22;9675;51.538;6.728;2024-02-21T01:54:44;9.90;99.90
19085;DHT22;9675;51.538;6.728;2024-02-21T01:57:13;9.90;99.90
19085;DHT22;9675;51.538;6.728;2024-02-21T01:59:41;9.90;99.90
19085;DHT22;9675;51.538;6.728;2024-02-21T02:02:09;9.90;99.90
19085;DHT22;9675;51.538;6.728;2024-02-21T02:04:38;9.90;99.90
19085;DHT22;9675;51.538;6.728;2024-02-21T02:07:07;9.90;99.90
19085;DHT22;9675;51.538;6.728;2024-02-21T02:09:34;9.90;99.90
19085;DHT22;9675;51.538;6.728;2024-02-21T02:12:05;9.90;99.90
19085;DHT22;9675;51.538;6.728;2024-02-21T02:14:33;9.90;99.90
19085;DHT22;9675;51.538;6.728;2024-02-21T02:17:00;9.80;99.90
19085;DHT22;9675;51.538;6.728;2024-02-21T02:19:27;9.80;99.90
19085;DHT22;9675;51.538;6.728;2024-02-21T02:21:59;9.80;99.90
19085;DHT22;9675;51.538;6.728;2024-02-21T02:24:36;9.80;99.90
19085;DHT22;9675;51.538;6.728;2024-02-21T02:27:04;9.80;99.90
19085;DHT22;9675;51.538;6.728;2024-02-21T02:29:32;9.80;99.90
19085;DHT22;9675;51.538;6.728;2024-02-21T02:31:59;9.80;99.90
19085;DHT22;9675;51.538;6.728;2024-02-21T02:34:26;9.80;99.90
19085;DHT22;9675;51.538;6.728;2024-02-21T02:36:53;9.70;99.90
19085;DHT22;9675;51.538;6.728;2024-02-21T02:39:20;9.70;99.90
19085;DHT22;9675;51.538;6.728;2024-02-21T02:41:49;9.70;99.90
19085;DHT22;9675;51.538;6.728;2024-02-21T02:44:16;9.70;99.90
19085;DHT22;9675;51.538;6.728;2024-02-21T02:46:43;9.70;99.90
19085;DHT22;9675;51.538;6.728;2024-02-21T02:49:10;9.70;99.90
19085;DHT22;9675;51.538;6.728;2024-02-21T02:51:41;9.70;99.90
19085;DHT22;9675;51.538;6.728;2024-02-21T02:54:09;9.70;99.90
19085;DHT22;9675;51.538;6.728;2024-02-21T02:56:36;9.70;99.90
19085;DHT22;9675;51.538;6.728;2024-02-21T02:59:04;9.60;99.90
19085;DHT22;9675;51.538;6.728;2024-02-21T03:01:33;9.70;99.90
19085;DHT22;9675;51.538;6.728;2024-02-21T03:04:01;9.70;99.90
19085;DHT22;9675;51.538;6.728;2024-02-21T03:06:28;9.60;99.90
19085;DHT22;9675;51.538;6.728;2024-02-21T03:08:55;9.70;99.90
19085;DHT22;9675;51.538;6.728;2024-02-21T03:11:22;9.60;99.90
19085;DHT22;9675;51.538;6.728;2024-02-21T03:13:54;9.60;99.90
19085;DHT22;9675;51.538;6.728;2024-02-21T03:16:26;9.60;99.90
19085;DHT22;9675;51.538;6.728;2024-02-21T03:18:53;9.60;99.90
19085;DHT22;9675;51.538;6.728;2024-02-21T03:21:20;9.60;99.90
19085;DHT22;9675;51.538;6.728;2024-02-21T03:23:47;9.60;99.90
19085;DHT22;9675;51.538;6.728;2024-02-21T03:26:14;9.60;99.90
19085;DHT22;9675;51.538;6.728;2024-02-21T03:28:42;9.60;99.90
19085;DHT22;9675;51.538;6.728;2024-02-21T03:31:11;9.60;99.90
19085;DHT22;9675;51.538;6.728;2024-02-21T03:33:42;9.60;99.90
19085;DHT22;9675;51.538;6.728;2024-02-21T03:36:13;9.60;99.90
19085;DHT22;9675;51.538;6.728;2024-02-21T03:38:41;9.60;99.90
19085;DHT22;9675;51.538;6.728;2024-02-21T03:41:08;9.60;99.90
19085;DHT22;9675;51.538;6.728;2024-02-21T03:43:37;9.60;99.90
19085;DHT22;9675;51.538;6.728;2024-02-21T03:46:04;9.60;99.90
19085;DHT22;9675;51.538;6.728;2024-02-21T03:48:31;9.60;99.90
19085;DHT22;9675;51.538;6.728;2024-02-21T03:50:59;9.60;99.90
19085;DHT22;9675;51.538;6.728;2024-02-21T03:53:26;9.70;99.90
19085;DHT22;9675;51.538;6.728;2024-02-21T03:55:53;9.60;99.90
19085;DHT22;9675;51.538;6.728;2024-02-21T03:58:21;9.60;99.90
19085;DHT22;9675;51.538;6.728;2024-02-21T04:00:48;9.60;99.90
19085;DHT22;9675;51.538;6.728;2024-02-21T04:03:15;9.60;99.90
19085;DHT22;9675;51.538;6.728;2024-02-21T04:05:42;9.60;99.90
19085;DHT22;9675;51.538;6.728;2024-02-21T04:08:11;9.60;99.90
19085;DHT22;9675;51.538;6.728;2024-02-21T04:10:38;9.60;99.90
19085;DHT22;9675;51.538;6.728;2024-02-21T04:13:06;9.60;99.90
19085;DHT22;9675;51.538;6.728;2024-02-21T04:15:33;9.60;99.90
19085;DHT22;9675;51.538;6.728;2024-02-21T04:18:01;9.60;99.90
19085;DHT22;9675;51.538;6.728;2024-02-21T04:20:28;9.60;99.90
19085;DHT22;9675;51.538;6.728;2024-02-21T04:22:56;9.60;99.90
19085;DHT22;9675;51.538;6.728;2024-02-21T04:25:24;9.70;99.90
19085;DHT22;9675;51.538;6.728;2024-02-21T04:27:51;9.60;99.90
19085;DHT22;9675;51.538;6.728;2024-02-21T04:30:19;9.60;99.90
19085;DHT22;9675;51.538;6.728;2024-02-21T04:32:46;9.60;99.90
19085;DHT22;9675;51.538;6.728;2024-02-21T04:35:13;9.60;99.90
19085;DHT22;9675;51.538;6.728;2024-02-21T04:37:40;9.60;99.90
19085;DHT22;9675;51.538;6.728;2024-02-21T04:40:08;9.60;99.90
19085;DHT22;9675;51.538;6.728;2024-02-21T04:42:37;9.60;99.90
19085;DHT22;9675;51.538;6.728;2024-02-21T04:45:05;9.60;99.90
19085;DHT22;9675;51.538;6.728;2024-02-21T04:47:33;9.70;99.90
19085;DHT22;9675;51.538;6.728;2024-02-21T04:50:00;9.60;99.90
19085;DHT22;9675;51.538;6.728;2024-02-21T04:52:27;9.60;99.90
19085;DHT22;9675;51.538;6.728;2024-02-21T04:54:54;9.70;99.90
19085;DHT22;9675;51.538;6.728;2024-02-21T04:57:21;9.60;99.90
19085;DHT22;9675;51.538;6.728;2024-02-21T04:59:50;9.60;99.90
19085;DHT22;9675;51.538;6.728;2024-02-21T05:02:17;9.60;99.90
19085;DHT22;9675;51.538;6.728;2024-02-21T05:04:44;9.60;99.90
19085;DHT22;9675;51.538;6.728;2024-02-21T05:07:12;9.60;99.90
19085;DHT22;9675;51.538;6.728;2024-02-21T05:09:39;9.60;99.90
19085;DHT22;9675;51.538;6.728;2024-02-21T05:12:06;9.60;99.90
19085;DHT22;9675;51.538;6.728;2024-02-21T05:14:33;9.60;99.90
19085;DHT22;9675;51.538;6.728;2024-02-21T05:17:02;9.60;99.90
19085;DHT22;9675;51.538;6.728;2024-02-21T05:19:29;9.60;99.90
19085;DHT22;9675;51.538;6.728;2024-02-21T05:21:56;9.60;99.90
19085;DHT22;9675;51.538;6.728;2024-02-21T05:24:23;9.60;99.90
19085;DHT22;9675;51.538;6.728;2024-02-21T05:26:50;9.60;99.90
19085;DHT22;9675;51.538;6.728;2024-02-21T05:29:17;9.60;99.90
19085;DHT22;9675;51.538;6.728;2024-02-21T05:31:55;9.70;99.90
19085;DHT22;9675;51.538;6.728;2024-02-21T05:34:25;9.60;99.90
19085;DHT22;9675;51.538;6.728;2024-02-21T05:36:52;9.60;99.90
19085;DHT22;9675;51.538;6.728;2024-02-21T05:39:21;9.60;99.90
19085;DHT22;9675;51.538;6.728;2024-02-21T05:41:49;9.60;99.90
19085;DHT22;9675;51.538;6.728;2024-02-21T05:44:17;9.60;99.90
19085;DHT22;9675;51.538;6.728;2024-02-21T05:46:46;9.60;99.90
19085;DHT22;9675;51.538;6.728;2024-02-21T05:49:13;9.60;99.90
19085;DHT22;9675;51.538;6.728;2024-02-21T05:51:42;9.60;99.90
19085;DHT22;9675;51.538;6.728;2024-02-21T05:54:09;9.70;99.90
19085;DHT22;9675;51.538;6.728;2024-02-21T05:56:36;9.60;99.90
19085;DHT22;9675;51.538;6.728;2024-02-21T05:59:03;9.60;99.90
19085;DHT22;9675;51.538;6.728;2024-02-21T06:01:30;9.60;99.90
19085;DHT22;9675;51.538;6.728;2024-02-21T06:03:57;9.60;99.90
19085;DHT22;9675;51.538;6.728;2024-02-21T06:06:24;9.60;99.90
19085;DHT22;9675;51.538;6.728;2024-02-21T06:08:52;9.60;99.90
19085;DHT22;9675;51.538;6.728;2024-02-21T06:11:19;9.60;99.90
19085;DHT22;9675;51.538;6.728;2024-02-21T06:13:46;9.60;99.90
19085;DHT22;9675;51.538;6.728;2024-02-21T06:16:13;9.60;99.90
19085;DHT22;9675;51.538;6.728;2024-02-21T06:18:40;9.60;99.90
19085;DHT22;9675;51.538;6.728;2024-02-21T06:21:07;9.60;99.90
19085;DHT22;9675;51.538;6.728;2024-02-21T06:23:37;9.60;99.90
19085;DHT22;9675;51.538;6.728;2024-02-21T06:26:05;9.60;99.90
19085;DHT22;9675;51.538;6.728;2024-02-21T06:28:32;9.60;99.90
19085;DHT22;9675;51.538;6.728;2024-02-21T06:30:59;9.60;99.90
19085;DHT22;9675;51.538;6.728;2024-02-21T06:33:26;9.60;99.90
19085;DHT22;9675;51.538;6.728;2024-02-21T06:35:53;9.60;99.90
19085;DHT22;9675;51.538;6.728;2024-02-21T06:38:20;9.60;99.90
19085;DHT22;9675;51.538;6.728;2024-02-21T06:40:47;9.60;99.90
19085;DHT22;9675;51.538;6.728;2024-02-21T06:43:20;9.60;99.90
19085;DHT22;9675;51.538;6.728;2024-02-21T06:45:47;9.60;99.90
19085;DHT22;9675;51.538;6.728;2024-02-21T06:48:17;9.60;99.90
19085;DHT22;9675;51.538;6.728;2024-02-21T06:50:44;9.60;99.90
19085;DHT22;9675;51.538;6.728;2024-02-21T06:53:12;9.60;99.90
19085;DHT22;9675;51.538;6.728;2024-02-21T06:55:39;9.60;99.90
19085;DHT22;9675;51.538;6.728;2024-02-21T06:58:06;9.60;99.90
19085;DHT22;9675;51.538;6.728;2024-02-21T07:00:38;9.60;99.90
19085;DHT22;9675;51.538;6.728;2024-02-21T07:03:06;9.60;99.90
19085;DHT22;9675;51.538;6.728;2024-02-21T07:05:33;9.60;99.90
19085;DHT22;9675;51.538;6.728;2024-02-21T07:08:00;9.60;99.90
19085;DHT22;9675;51.538;6.728;2024-02-21T07:10:29;9.60;99.90
19085;DHT22;9675;51.538;6.728;2024-02-21T07:12:56;9.60;99.90
19085;DHT22;9675;51.538;6.728;2024-02-21T07:15:23;9.60;99.90
19085;DHT22;9675;51.538;6.728;2024-02-21T07:17:53;9.60;99.90
19085;DHT22;9675;51.538;6.728;2024-02-21T07:20:20;9.60;99.90
19085;DHT22;9675;51.538;6.728;2024-02-21T07:22:47;9.60;99.90
19085;DHT22;9675;51.538;6.728;2024-02-21T07:25:15;9.60;99.90
19085;DHT22;9675;51.538;6.728;2024-02-21T07:27:43;9.60;99.90
19085;DHT22;9675;51.538;6.728;2024-02-21T07:30:11;9.60;99.90
19085;DHT22;9675;51.538;6.728;2024-02-21T07:32:39;9.60;99.90
19085;DHT22;9675;51.538;6.728;2024-02-21T07:35:08;9.60;99.90
19085;DHT22;9675;51.538;6.728;2024-02-21T07:37:36;9.60;99.90
19085;DHT22;9675;51.538;6.728;2024-02-21T07:40:05;9.60;99.90
19085;DHT22;9675;51.538;6.728;2024-02-21T07:42:33;9.60;99.90
19085;DHT22;9675;51.538;6.728;2024-02-21T07:45:00;9.60;99.90
19085;DHT22;9675;51.538;6.728;2024-02-21T07:47:28;9.60;99.90
19085;DHT22;9675;51.538;6.728;2024-02-21T07:49:55;9.70;99.90
19085;DHT22;9675;51.538;6.728;2024-02-21T07:52:24;9.70;99.90
19085;DHT22;9675;51.538;6.728;2024-02-21T07:54:51;9.70;99.90
19085;DHT22;9675;51.538;6.728;2024-02-21T07:57:18;9.70;99.90
19085;DHT22;9675;51.538;6.728;2024-02-21T07:59:45;9.70;99.90
19085;DHT22;9675;51.538;6.728;2024-02-21T08:02:13;9.70;99.90
19085;DHT22;9675;51.538;6.728;2024-02-21T08:04:41;9.70;99.90
19085;DHT22;9675;51.538;6.728;2024-02-21T08:07:08;9.70;99.90
19085;DHT22;9675;51.538;6.728;2024-02-21T08:09:39;9.70;99.90
19085;DHT22;9675;51.538;6.728;2024-02-21T08:12:07;9.70;99.90
19085;DHT22;9675;51.538;6.728;2024-02-21T08:14:34;9.70;99.90
19085;DHT22;9675;51.538;6.728;2024-02-21T08:17:01;9.70;99.90
19085;DHT22;9675;51.538;6.728;2024-02-21T08:19:29;9.70;99.90
19085;DHT22;9675;51.538;6.728;2024-02-21T08:21:56;9.70;99.90
19085;DHT22;9675;51.538;6.728;2024-02-21T08:24:23;9.70;99.90
19085;DHT22;9675;51.538;6.728;2024-02-21T08:26:52;9.70;99.90
19085;DHT22;9675;51.538;6.728;2024-02-21T08:29:19;9.80;99.90
19085;DHT22;9675;51.538;6.728;2024-02-21T08:31:46;9.70;99.90
19085;DHT22;9675;51.538;6.728;2024-02-21T08:34:13;9.70;99.90
19085;DHT22;9675;51.538;6.728;2024-02-21T08:36:40;9.70;99.90
19085;DHT22;9675;51.538;6.728;2024-02-21T08:39:07;9.70;99.90
19085;DHT22;9675;51.538;6.728;2024-02-21T08:41:35;9.80;99.90
19085;DHT22;9675;51.538;6.728;2024-02-21T08:44:03;9.80;99.90
19085;DHT22;9675;51.538;6.728;2024-02-21T08:46:30;9.80;99.90
19085;DHT22;9675;51.538;6.728;2024-02-21T08:48:57;9.80;99.90
19085;DHT22;9675;51.538;6.728;2024-02-21T08:51:24;9.80;99.90
19085;DHT22;9675;51.538;6.728;2024-02-21T08:53:52;9.80;99.90
19085;DHT22;9675;51.538;6.728;2024-02-21T08:56:19;9.80;99.90
19085;DHT22;9675;51.538;6.728;2024-02-21T08:58:46;9.90;99.90
19085;DHT22;9675;51.538;6.728;2024-02-21T09:01:14;9.90;99.90
19085;DHT22;9675;51.538;6.728;2024-02-21T09:03:41;9.90;99.90
19085;DHT22;9675;51.538;6.728;2024-02-21T09:06:11;9.90;99.90
19085;DHT22;9675;51.538;6.728;2024-02-21T09:08:41;9.90;99.90
19085;DHT22;9675;51.538;6.728;2024-02-21T09:11:09;9.90;99.90
19085;DHT22;9675;51.538;6.728;2024-02-21T09:13:36;9.90;99.90
19085;DHT22;9675;51.538;6.728;2024-02-21T09:16:03;10.00;99.90
19085;DHT22;9675;51.538;6.728;2024-02-21T09:18:32;10.00;99.90
19085;DHT22;9675;51.538;6.728;2024-02-21T09:21:00;9.90;99.90
19085;DHT22;9675;51.538;6.728;2024-02-21T09:23:27;9.90;99.90
19085;DHT22;9675;51.538;6.728;2024-02-21T09:25:54;9.90;99.90
19085;DHT22;9675;51.538;6.728;2024-02-21T09:28:21;9.90;99.90
19085;DHT22;9675;51.538;6.728;2024-02-21T09:30:49;10.00;99.90
19085;DHT22;9675;51.538;6.728;2024-02-21T09:33:16;9.90;99.90
19085;DHT22;9675;51.538;6.728;2024-02-21T09:35:44;9.90;99.90
19085;DHT22;9675;51.538;6.728;2024-02-21T09:38:11;10.00;99.90
19085;DHT22;9675;51.538;6.728;2024-02-21T09:40:38;10.00;99.90
19085;DHT22;9675;51.538;6.728;2024-02-21T09:43:08;10.00;99.90
19085;DHT22;9675;51.538;6.728;2024-02-21T09:45:35;10.00;99.90
19085;DHT22;9675;51.538;6.728;2024-02-21T09:48:13;10.00;99.90
19085;DHT22;9675;51.538;6.728;2024-02-21T09:50:51;10.10;99.90
19085;DHT22;9675;51.538;6.728;2024-02-21T09:53:23;10.10;99.90
19085;DHT22;9675;51.538;6.728;2024-02-21T09:55:51;10.10;99.90
19085;DHT22;9675;51.538;6.728;2024-02-21T09:58:19;10.10;99.90
19085;DHT22;9675;51.538;6.728;2024-02-21T10:00:48;10.10;99.90
19085;DHT22;9675;51.538;6.728;2024-02-21T10:03:15;10.10;99.90
19085;DHT22;9675;51.538;6.728;2024-02-21T10:05:47;10.10;99.90
19085;DHT22;9675;51.538;6.728;2024-02-21T10:08:18;10.10;99.90
19085;DHT22;9675;51.538;6.728;2024-02-21T10:10:46;10.10;99.90
19085;DHT22;9675;51.538;6.728;2024-02-21T10:13:24;10.10;99.90
19085;DHT22;9675;51.538;6.728;2024-02-21T10:16:03;10.10;99.90
19085;DHT22;9675;51.538;6.728;2024-02-21T10:18:31;10.10;99.90
19085;DHT22;9675;51.538;6.728;2024-02-21T10:21:03;10.10;99.90
19085;DHT22;9675;51.538;6.728;2024-02-21T10:23:43;10.10;99.90
19085;DHT22;9675;51.538;6.728;2024-02-21T10:26:11;10.20;99.90
19085;DHT22;9675;51.538;6.728;2024-02-21T10:28:38;10.20;99.90
19085;DHT22;9675;51.538;6.728;2024-02-21T10:31:08;10.20;99.90
19085;DHT22;9675;51.538;6.728;2024-02-21T10:33:36;10.20;99.90
19085;DHT22;9675;51.538;6.728;2024-02-21T10:36:07;10.20;99.90
19085;DHT22;9675;51.538;6.728;2024-02-21T10:38:37;10.20;99.90
19085;DHT22;9675;51.538;6.728;2024-02-21T10:41:06;10.20;99.90
19085;DHT22;9675;51.538;6.728;2024-02-21T10:43:38;10.20;99.90
19085;DHT22;9675;51.538;6.728;2024-02-21T10:46:07;10.20;99.90
19085;DHT22;9675;51.538;6.728;2024-02-21T10:48:42;10.30;99.90
19085;DHT22;9675;51.538;6.728;2024-02-21T10:51:16;10.30;99.90
19085;DHT22;9675;51.538;6.728;2024-02-21T10:53:47;10.30;99.90
19085;DHT22;9675;51.538;6.728;2024-02-21T10:56:28;10.30;99.90
19085;DHT22;9675;51.538;6.728;2024-02-21T10:58:58;10.30;99.90
19085;DHT22;9675;51.538;6.728;2024-02-21T11:01:28;10.30;99.90
19085;DHT22;9675;51.538;6.728;2024-02-21T11:03:59;10.30;99.90
19085;DHT22;9675;51.538;6.728;2024-02-21T11:06:29;10.30;99.90
19085;DHT22;9675;51.538;6.728;2024-02-21T11:09:02;10.30;99.90
19085;DHT22;9675;51.538;6.728;2024-02-21T11:11:33;10.30;99.90
19085;DHT22;9675;51.538;6.728;2024-02-21T11:14:05;10.40;99.90
19085;DHT22;9675;51.538;6.728;2024-02-21T11:16:37;10.40;99.90
19085;DHT22;9675;51.538;6.728;2024-02-21T11:19:06;10.50;99.90
19085;DHT22;9675;51.538;6.728;2024-02-21T11:21:35;10.40;99.90
19085;DHT22;9675;51.538;6.728;2024-02-21T11:24:03;10.50;99.90
19085;DHT22;9675;51.538;6.728;2024-02-21T11:26:32;10.50;99.90
19085;DHT22;9675;51.538;6.728;2024-02-21T11:29:00;10.50;99.90
19085;DHT22;9675;51.538;6.728;2024-02-21T11:31:38;10.50;99.90
19085;DHT22;9675;51.538;6.728;2024-02-21T11:34:09;10.50;99.90
19085;DHT22;9675;51.538;6.728;2024-02-21T11:36:45;10.50;99.90
19085;DHT22;9675;51.538;6.728;2024-02-21T11:39:18;10.60;99.90
19085;DHT22;9675;51.538;6.728;2024-02-21T11:42:02;10.60;99.90
19085;DHT22;9675;51.538;6.728;2024-02-21T11:44:31;10.70;99.90
19085;DHT22;9675;51.538;6.728;2024-02-21T11:46:58;10.60;99.90
19085;DHT22;9675;51.538;6.728;2024-02-21T11:49:25;10.70;99.90
19085;DHT22;9675;51.538;6.728;2024-02-21T11:51:58;10.70;99.90
19085;DHT22;9675;51.538;6.728;2024-02-21T11:54:26;10.70;99.90
19085;DHT22;9675;51.538;6.728;2024-02-21T11:56:55;10.70;99.90
19085;DHT22;9675;51.538;6.728;2024-02-21T11:59:22;10.80;99.90
19085;DHT22;9675;51.538;6.728;2024-02-21T12:01:49;10.80;99.90
19085;DHT22;9675;51.538;6.728;2024-02-21T12:04:17;10.80;99.90
19085;DHT22;9675;51.538;6.728;2024-02-21T12:06:45;10.90;99.90
19085;DHT22;9675;51.538;6.728;2024-02-21T12:09:14;10.90;99.90
19085;DHT22;9675;51.538;6.728;2024-02-21T12:11:42;10.90;99.90
19085;DHT22;9675;51.538;6.728;2024-02-21T12:14:16;10.90;99.90
19085;DHT22;9675;51.538;6.728;2024-02-21T12:16:45;10.90;99.90
19085;DHT22;9675;51.538;6.728;2024-02-21T12:19:13;10.90;99.90
19085;DHT22;9675;51.538;6.728;2024-02-21T12:21:42;10.90;99.90
19085;DHT22;9675;51.538;6.728;2024-02-21T12:24:14;11.00;99.90
19085;DHT22;9675;51.538;6.728;2024-02-21T12:26:42;11.00;99.90
19085;DHT22;9675;51.538;6.728;2024-02-21T12:29:10;11.00;99.90
19085;DHT22;9675;51.538;6.728;2024-02-21T12:31:38;11.10;99.90
19085;DHT22;9675;51.538;6.728;2024-02-21T12:34:05;11.10;99.90
19085;DHT22;9675;51.538;6.728;2024-02-21T12:36:36;11.10;99.90
19085;DHT22;9675;51.538;6.728;2024-02-21T12:39:07;11.10;99.90
19085;DHT22;9675;51.538;6.728;2024-02-21T12:41:35;11.10;99.90
19085;DHT22;9675;51.538;6.728;2024-02-21T12:44:04;11.20;99.90
19085;DHT22;9675;51.538;6.728;2024-02-21T12:46:33;11.20;99.90
19085;DHT22;9675;51.538;6.728;2024-02-21T12:49:01;11.20;99.90
19085;DHT22;9675;51.538;6.728;2024-02-21T12:51:28;11.20;99.90
19085;DHT22;9675;51.538;6.728;2024-02-21T12:53:56;11.30;99.90
19085;DHT22;9675;51.538;6.728;2024-02-21T12:56:23;11.30;99.90
19085;DHT22;9675;51.538;6.728;2024-02-21T12:58:51;11.30;99.90
19085;DHT22;9675;51.538;6.728;2024-02-21T13:01:18;11.40;99.90
19085;DHT22;9675;51.538;6.728;2024-02-21T13:03:48;11.40;99.90
19085;DHT22;9675;51.538;6.728;2024-02-21T13:06:15;11.40;99.90
19085;DHT22;9675;51.538;6.728;2024-02-21T13:08:42;11.40;99.90
19085;DHT22;9675;51.538;6.728;2024-02-21T13:11:10;11.40;99.90
19085;DHT22;9675;51.538;6.728;2024-02-21T13:13:38;11.40;99.90
19085;DHT22;9675;51.538;6.728;2024-02-21T13:16:06;11.50;99.90
19085;DHT22;9675;51.538;6.728;2024-02-21T13:18:35;11.50;99.90
19085;DHT22;9675;51.538;6.728;2024-02-21T13:21:05;11.60;99.90
19085;DHT22;9675;51.538;6.728;2024-02-21T13:23:32;11.60;99.90
19085;DHT22;9675;51.538;6.728;2024-02-21T13:25:59;11.60;99.90
19085;DHT22;9675;51.538;6.728;2024-02-21T13:28:26;11.60;99.90
19085;DHT22;9675;51.538;6.728;2024-02-21T13:30:53;11.70;99.90
19085;DHT22;9675;51.538;6.728;2024-02-21T13:33:20;11.70;99.90
19085;DHT22;9675;51.538;6.728;2024-02-21T13:35:47;11.70;99.90
19085;DHT22;9675;51.538;6.728;2024-02-21T13:38:16;11.70;99.90
19085;DHT22;9675;51.538;6.728;2024-02-21T13:40:44;11.70;99.90
19085;DHT22;9675;51.538;6.728;2024-02-21T13:43:11;11.70;99.90
19085;DHT22;9675;51.538;6.728;2024-02-21T13:45:39;11.80;99.90
19085;DHT22;9675;51.538;6.728;2024-02-21T13:48:08;11.80;99.90
19085;DHT22;9675;51.538;6.728;2024-02-21T13:50:37;11.80;99.90
19085;DHT22;9675;51.538;6.728;2024-02-21T13:53:08;11.90;99.90
19085;DHT22;9675;51.538;6.728;2024-02-21T13:55:37;11.90;99.90
19085;DHT22;9675;51.538;6.728;2024-02-21T13:58:06;11.90;99.90
19085;DHT22;9675;51.538;6.728;2024-02-21T14:00:34;11.90;99.90
19085;DHT22;9675;51.538;6.728;2024-02-21T14:03:01;12.00;99.90
19085;DHT22;9675;51.538;6.728;2024-02-21T14:05:28;12.00;99.90
19085;DHT22;9675;51.538;6.728;2024-02-21T14:07:55;12.00;99.90
19085;DHT22;9675;51.538;6.728;2024-02-21T14:10:23;12.00;99.90
19085;DHT22;9675;51.538;6.728;2024-02-21T14:12:51;12.00;99.90
19085;DHT22;9675;51.538;6.728;2024-02-21T14:15:18;12.10;99.90
19085;DHT22;9675;51.538;6.728;2024-02-21T14:17:45;12.10;99.90
19085;DHT22;9675;51.538;6.728;2024-02-21T14:20:12;12.10;99.90
19085;DHT22;9675;51.538;6.728;2024-02-21T14:22:40;12.10;99.90
19085;DHT22;9675;51.538;6.728;2024-02-21T14:25:08;12.10;99.90
19085;DHT22;9675;51.538;6.728;2024-02-21T14:27:35;12.10;99.90
19085;DHT22;9675;51.538;6.728;2024-02-21T14:30:05;12.10;99.90
19085;DHT22;9675;51.538;6.728;2024-02-21T14:32:36;12.20;99.90
19085;DHT22;9675;51.538;6.728;2024-02-21T14:35:03;12.20;99.90
19085;DHT22;9675;51.538;6.728;2024-02-21T14:37:31;12.20;99.90
19085;DHT22;9675;51.538;6.728;2024-02-21T14:39:58;12.20;99.90
19085;DHT22;9675;51.538;6.728;2024-02-21T14:42:26;12.20;99.90
19085;DHT22;9675;51.538;6.728;2024-02-21T14:44:53;12.20;99.90
19085;DHT22;9675;51.538;6.728;2024-02-21T14:47:30;12.20;99.90
19085;DHT22;9675;51.538;6.728;2024-02-21T14:49:57;12.30;99.90
19085;DHT22;9675;51.538;6.728;2024-02-21T14:52:24;12.20;99.90
19085;DHT22;9675;51.538;6.728;2024-02-21T14:54:53;12.20;99.90
19085;DHT22;9675;51.538;6.728;2024-02-21T14:57:20;12.20;99.90
19085;DHT22;9675;51.538;6.728;2024-02-21T14:59:47;12.30;99.90
19085;DHT22;9675;51.538;6.728;2024-02-21T15:02:15;12.30;99.90
19085;DHT22;9675;51.538;6.728;2024-02-21T15:04:43;12.30;99.90
19085;DHT22;9675;51.538;6.728;2024-02-21T15:07:10;12.30;99.90
19085;DHT22;9675;51.538;6.728;2024-02-21T15:09:37;12.30;99.90
19085;DHT22;9675;51.538;6.728;2024-02-21T15:12:05;12.30;99.90
19085;DHT22;9675;51.538;6.728;2024-02-21T15:14:33;12.30;99.90
19085;DHT22;9675;51.538;6.728;2024-02-21T15:17:01;12.30;99.90
19085;DHT22;9675;51.538;6.728;2024-02-21T15:19:28;12.30;99.90
19085;DHT22;9675;51.538;6.728;2024-02-21T15:21:56;12.30;99.90
19085;DHT22;9675;51.538;6.728;2024-02-21T15:24:24;12.30;99.90
19085;DHT22;9675;51.538;6.728;2024-02-21T15:26:51;12.30;99.90
19085;DHT22;9675;51.538;6.728;2024-02-21T15:29:18;12.30;99.90
19085;DHT22;9675;51.538;6.728;2024-02-21T15:31:45;12.30;99.90
19085;DHT22;9675;51.538;6.728;2024-02-21T15:34:13;12.30;99.90
19085;DHT22;9675;51.538;6.728;2024-02-21T15:36:41;12.30;99.90
19085;DHT22;9675;51.538;6.728;2024-02-21T15:39:09;12.30;99.90
19085;DHT22;9675;51.538;6.728;2024-02-21T15:41:37;12.30;99.90
19085;DHT22;9675;51.538;6.728;2024-02-21T15:44:05;12.30;99.90
19085;DHT22;9675;51.538;6.728;2024-02-21T15:46:32;12.30;99.90
19085;DHT22;9675;51.538;6.728;2024-02-21T15:49:02;12.30;99.90
19085;DHT22;9675;51.538;6.728;2024-02-21T15:51:29;12.20;99.90
19085;DHT22;9675;51.538;6.728;2024-02-21T15:53:56;12.30;99.90
19085;DHT22;9675;51.538;6.728;2024-02-21T15:56:27;12.30;99.90
19085;DHT22;9675;51.538;6.728;2024-02-21T15:58:54;12.30;99.90
19085;DHT22;9675;51.538;6.728;2024-02-21T16:01:22;12.20;99.90